Time;durP1;ratioP1;P1;durP2;ratioP2;P2;SDS_P1;SDS_P2;PMS_P1;PMS_P2;Temp;Humidity;BMP_temperature;BMP_pressure;BME280_temperature;BME280_humidity;BME280_pressure;Samples;Min_cycle;Max_cycle;Signal;HPM_P1;HPM_P2
2023/11/21 00:00:21;;;;;;;29.48;8.05;;;10.70;99.90;;;;;;5048584;28;20700;-43
2023/11/21 00:02:47;;;;;;;29.02;7.40;;;10.80;99.90;;;;;;5044201;28;20179;-48
2023/11/21 00:05:14;;;;;;;24.80;7.30;;;10.80;99.90;;;;;;5049989;28;21411;-46
2023/11/21 00:07:41;;;;;;;32.50;8.15;;;10.80;99.90;;;;;;5049306;28;20186;-45
2023/11/21 00:10:09;;;;;;;30.00;7.20;;;10.80;99.90;;;;;;5051784;28;20203;-45
2023/11/21 00:12:35;;;;;;;32.10;7.53;;;10.80;99.90;;;;;;5049053;28;20231;-41
2023/11/21 00:15:02;;;;;;;27.42;6.95;;;10.80;99.90;;;;;;5049009;28;20229;-47
2023/11/21 00:17:30;;;;;;;28.42;7.47;;;10.90;99.90;;;;;;5049471;28;20191;-46
2023/11/21 00:19:55;;;;;;;28.38;7.18;;;10.90;99.90;;;;;;5047978;28;20240;-46
2023/11/21 00:22:21;;;;;;;27.55;7.18;;;10.90;99.90;;;;;;5050320;28;20191;-44
2023/11/21 00:24:47;;;;;;;30.48;7.60;;;10.90;99.90;;;;;;5047552;28;20226;-43
2023/11/21 00:27:14;;;;;;;31.77;7.10;;;10.90;99.90;;;;;;5048770;28;20198;-45
2023/11/21 00:29:40;;;;;;;31.42;7.40;;;10.90;99.90;;;;;;5050671;28;20198;-46
2023/11/21 00:32:07;;;;;;;31.73;7.75;;;10.90;99.90;;;;;;5069708;28;20201;-47
2023/11/21 00:34:34;;;;;;;27.48;7.82;;;10.90;99.90;;;;;;5063923;28;20226;-48
2023/11/21 00:37:00;;;;;;;37.78;8.75;;;10.90;99.90;;;;;;5066353;28;20210;-42
2023/11/21 00:39:26;;;;;;;37.03;8.57;;;10.90;99.90;;;;;;5051103;28;20690;-46
2023/11/21 00:41:52;;;;;;;34.85;8.23;;;10.90;99.90;;;;;;5063877;28;20210;-45
2023/11/21 00:44:18;;;;;;;32.80;9.10;;;10.90;99.90;;;;;;5048027;28;20187;-50
2023/11/21 00:46:44;;;;;;;29.10;8.00;;;10.90;99.90;;;;;;5045305;28;20698;-43
2023/11/21 00:49:10;;;;;;;33.58;8.73;;;10.90;99.90;;;;;;5045101;28;20185;-42
2023/11/21 00:51:36;;;;;;;34.78;8.85;;;10.90;99.90;;;;;;5066812;28;20202;-44
2023/11/21 00:54:02;;;;;;;33.47;8.57;;;10.90;99.90;;;;;;5050177;28;20694;-44
2023/11/21 00:56:28;;;;;;;31.58;8.70;;;10.90;99.90;;;;;;5047475;28;20187;-43
2023/11/21 00:58:54;;;;;;;30.30;8.68;;;10.90;99.90;;;;;;5049328;28;20183;-49
2023/11/21 01:01:24;;;;;;;40.25;9.93;;;10.90;99.90;;;;;;5048421;28;20210;-43
2023/11/21 01:03:50;;;;;;;33.47;9.93;;;10.90;99.90;;;;;;5047321;28;20411;-45
2023/11/21 01:06:16;;;;;;;34.50;9.77;;;10.90;99.90;;;;;;5051330;28;20556;-42
2023/11/21 01:08:44;;;;;;;35.13;9.75;;;10.90;99.90;;;;;;5049646;28;20197;-48
2023/11/21 01:11:12;;;;;;;34.55;10.27;;;10.90;99.90;;;;;;5052958;28;20530;-45
2023/11/21 01:13:42;;;;;;;35.55;10.25;;;10.90;99.90;;;;;;5047417;28;20207;-43
2023/11/21 01:16:08;;;;;;;35.65;10.75;;;10.90;99.90;;;;;;5049772;28;20191;-42
2023/11/21 01:18:37;;;;;;;36.67;10.73;;;10.90;99.90;;;;;;5048967;28;20640;-43
2023/11/21 01:21:03;;;;;;;32.97;10.25;;;10.90;99.90;;;;;;5053719;28;20239;-47
2023/11/21 01:23:29;;;;;;;38.63;10.93;;;10.90;99.90;;;;;;5051351;28;20265;-42
2023/11/21 01:25:56;;;;;;;42.17;11.68;;;10.90;99.90;;;;;;5053386;28;20179;-43
2023/11/21 01:28:22;;;;;;;46.00;10.68;;;10.90;99.90;;;;;;5066408;28;20194;-43
2023/11/21 01:30:49;;;;;;;37.25;10.93;;;10.90;99.90;;;;;;5052361;28;20202;-51
2023/11/21 01:33:15;;;;;;;37.70;11.25;;;10.90;99.90;;;;;;5052678;28;20320;-42
2023/11/21 01:35:42;;;;;;;34.78;11.60;;;10.90;99.90;;;;;;5048829;28;20201;-42
2023/11/21 01:38:08;;;;;;;48.95;12.75;;;10.90;99.90;;;;;;5054204;28;20283;-42
2023/11/21 01:40:35;;;;;;;42.88;11.68;;;11.00;99.90;;;;;;5066442;28;20187;-47
2023/11/21 01:43:03;;;;;;;35.50;12.57;;;11.00;99.90;;;;;;5051354;28;20651;-48
2023/11/21 01:45:31;;;;;;;38.22;12.45;;;11.00;99.90;;;;;;5053574;28;20281;-48
2023/11/21 01:47:57;;;;;;;45.22;12.85;;;11.00;99.90;;;;;;5050669;28;20191;-45
2023/11/21 01:50:25;;;;;;;36.05;12.23;;;11.10;99.90;;;;;;5049847;28;20223;-46
2023/11/21 01:52:51;;;;;;;40.03;12.10;;;11.10;99.90;;;;;;5055046;28;20254;-45
2023/11/21 01:55:18;;;;;;;43.10;13.10;;;11.00;99.90;;;;;;5065923;28;20194;-44
2023/11/21 01:57:46;;;;;;;34.47;12.40;;;11.10;99.90;;;;;;5050336;28;21128;-45
2023/11/21 02:00:15;;;;;;;39.15;12.48;;;11.10;99.90;;;;;;5051767;28;20595;-42
2023/11/21 02:02:48;;;;;;;43.13;13.73;;;11.10;99.90;;;;;;5059607;28;20195;-41
2023/11/21 02:05:18;;;;;;;41.30;13.02;;;11.10;99.90;;;;;;5060393;28;20226;-45
2023/11/21 02:07:45;;;;;;;43.85;13.45;;;11.10;99.90;;;;;;5059231;28;20245;-45
2023/11/21 02:10:14;;;;;;;39.63;13.25;;;11.10;99.90;;;;;;5049479;28;20194;-48
2023/11/21 02:12:42;;;;;;;43.25;13.02;;;11.10;99.90;;;;;;5048301;28;20264;-46
2023/11/21 02:15:14;;;;;;;41.63;14.27;;;11.10;99.90;;;;;;5053464;28;20183;-48
2023/11/21 02:17:44;;;;;;;44.13;13.65;;;11.10;99.90;;;;;;5065976;28;20202;-48
2023/11/21 02:20:15;;;;;;;42.50;14.20;;;11.00;99.90;;;;;;5065175;28;20254;-45
2023/11/21 02:22:43;;;;;;;45.33;14.00;;;11.00;99.90;;;;;;5065408;28;20202;-51
2023/11/21 02:25:09;;;;;;;44.67;15.15;;;11.00;99.90;;;;;;5064935;28;20273;-45
2023/11/21 02:27:36;;;;;;;42.38;14.23;;;11.00;99.90;;;;;;5051901;28;20191;-43
2023/11/21 02:30:04;;;;;;;41.42;13.02;;;11.00;99.90;;;;;;5048916;28;20267;-45
2023/11/21 02:32:31;;;;;;;42.40;14.52;;;11.10;99.90;;;;;;5066100;28;20221;-51
2023/11/21 02:35:00;;;;;;;55.15;15.25;;;11.00;99.90;;;;;;5064454;28;20199;-47
2023/11/21 02:37:27;;;;;;;44.40;14.18;;;11.00;99.90;;;;;;5047895;28;20278;-44
2023/11/21 02:39:52;;;;;;;49.85;14.30;;;11.00;99.90;;;;;;5051722;28;20199;-49
2023/11/21 02:42:18;;;;;;;53.13;14.95;;;11.00;99.90;;;;;;5052006;28;20205;-45
2023/11/21 02:44:44;;;;;;;50.85;15.10;;;11.00;99.90;;;;;;5050270;28;20267;-48
2023/11/21 02:47:10;;;;;;;44.42;14.68;;;11.00;99.90;;;;;;5067061;28;20226;-43
2023/11/21 02:49:36;;;;;;;54.58;15.20;;;11.00;99.90;;;;;;5051371;28;20223;-43
2023/11/21 02:52:03;;;;;;;53.45;15.07;;;11.00;99.90;;;;;;5063994;28;20225;-47
2023/11/21 02:54:29;;;;;;;46.78;15.25;;;11.00;99.90;;;;;;5067245;28;20191;-42
2023/11/21 02:56:55;;;;;;;45.88;15.38;;;10.90;99.90;;;;;;5044127;28;20651;-44
2023/11/21 02:59:20;;;;;;;50.45;14.80;;;10.90;99.90;;;;;;5065637;28;20194;-45
2023/11/21 03:01:46;;;;;;;67.07;15.10;;;10.90;99.90;;;;;;5043699;28;20273;-50
2023/11/21 03:04:17;;;;;;;45.58;14.18;;;11.00;99.90;;;;;;5049390;28;20194;-42
2023/11/21 03:06:44;;;;;;;50.70;15.00;;;10.90;99.90;;;;;;5047978;28;20210;-48
2023/11/21 03:09:12;;;;;;;45.80;14.85;;;11.00;99.90;;;;;;5048219;28;20249;-46
2023/11/21 03:11:38;;;;;;;55.78;14.93;;;11.00;99.90;;;;;;5048838;28;20199;-41
2023/11/21 03:14:05;;;;;;;60.17;15.55;;;11.00;99.90;;;;;;5068962;28;20215;-44
2023/11/21 03:16:32;;;;;;;51.75;15.43;;;11.00;99.90;;;;;;5048594;28;20241;-44
2023/11/21 03:18:58;;;;;;;72.97;16.38;;;11.00;99.90;;;;;;5048956;28;20258;-46
2023/11/21 03:21:26;;;;;;;56.40;15.55;;;11.00;99.90;;;;;;5049632;28;20183;-43
2023/11/21 03:23:52;;;;;;;49.80;15.27;;;11.00;99.90;;;;;;5061729;28;20301;-45
2023/11/21 03:26:18;;;;;;;58.47;15.63;;;10.90;99.90;;;;;;5052052;28;20194;-43
2023/11/21 03:28:45;;;;;;;61.60;16.52;;;11.00;99.90;;;;;;5051058;28;20198;-43
2023/11/21 03:31:11;;;;;;;66.50;16.85;;;11.00;99.90;;;;;;5025803;28;20194;-41
2023/11/21 03:33:37;;;;;;;63.45;16.20;;;10.90;99.90;;;;;;5048272;28;20585;-45
2023/11/21 03:36:03;;;;;;;63.10;17.00;;;10.90;99.90;;;;;;5048422;28;20190;-47
2023/11/21 03:38:29;;;;;;;56.25;16.00;;;10.90;99.90;;;;;;5064380;28;20186;-45
2023/11/21 03:40:56;;;;;;;61.60;16.60;;;10.90;99.90;;;;;;5049784;28;20296;-41
2023/11/21 03:43:22;;;;;;;48.97;15.23;;;10.80;99.90;;;;;;5050851;28;20286;-44
2023/11/21 03:45:48;;;;;;;73.88;16.42;;;10.80;99.90;;;;;;5051918;28;20194;-45
2023/11/21 03:48:16;;;;;;;58.22;16.20;;;10.70;99.90;;;;;;5068362;28;20273;-50
2023/11/21 03:50:42;;;;;;;54.05;15.88;;;10.70;99.90;;;;;;5048609;28;20381;-42
2023/11/21 03:53:08;;;;;;;61.95;16.15;;;10.70;99.90;;;;;;5050346;28;20221;-42
2023/11/21 03:55:33;;;;;;;60.88;15.82;;;10.70;99.90;;;;;;5047459;28;20187;-45
2023/11/21 03:57:59;;;;;;;64.93;16.70;;;10.70;99.90;;;;;;5050836;28;20178;-47
2023/11/21 04:00:26;;;;;;;60.35;16.92;;;10.60;99.90;;;;;;5048974;28;20812;-45
2023/11/21 04:02:53;;;;;;;64.07;16.73;;;10.60;99.90;;;;;;5048269;28;20201;-47
2023/11/21 04:05:21;;;;;;;53.10;16.75;;;10.60;99.90;;;;;;5048266;28;20190;-40
2023/11/21 04:07:48;;;;;;;63.05;16.83;;;10.60;99.90;;;;;;5032328;28;20186;-44
2023/11/21 04:10:15;;;;;;;63.15;16.25;;;10.60;99.90;;;;;;5045309;28;20194;-43
2023/11/21 04:12:41;;;;;;;61.00;16.52;;;10.60;99.90;;;;;;5049296;28;20206;-48
2023/11/21 04:15:12;;;;;;;67.07;17.50;;;10.60;99.90;;;;;;5064551;28;20191;-43
2023/11/21 04:17:38;;;;;;;72.32;16.85;;;10.60;99.90;;;;;;5045997;28;20270;-42
2023/11/21 04:20:08;;;;;;;64.35;18.38;;;10.60;99.90;;;;;;5028170;28;20189;-44
2023/11/21 04:22:37;;;;;;;71.43;18.00;;;10.60;99.90;;;;;;5048295;28;20583;-45
2023/11/21 04:25:03;;;;;;;69.50;18.83;;;10.60;99.90;;;;;;5048522;28;20315;-46
2023/11/21 04:27:28;;;;;;;57.92;18.52;;;10.60;99.90;;;;;;5049920;28;20205;-49
2023/11/21 04:29:54;;;;;;;46.20;18.00;;;10.60;99.90;;;;;;5047067;28;20202;-46
2023/11/21 04:32:20;;;;;;;55.05;18.92;;;10.60;99.90;;;;;;5049449;28;20210;-47
2023/11/21 04:34:46;;;;;;;62.60;18.48;;;10.60;99.90;;;;;;5050746;28;20191;-47
2023/11/21 04:37:12;;;;;;;53.55;18.70;;;10.60;99.90;;;;;;5050468;28;20191;-47
2023/11/21 04:39:38;;;;;;;51.60;18.35;;;10.60;99.90;;;;;;5048121;28;20215;-46
2023/11/21 04:42:04;;;;;;;50.20;17.05;;;10.60;99.90;;;;;;5047324;28;20187;-42
2023/11/21 04:44:30;;;;;;;43.72;16.73;;;10.60;99.90;;;;;;5045324;28;20190;-47
2023/11/21 04:46:56;;;;;;;51.58;17.15;;;10.60;99.90;;;;;;5049484;28;20225;-44
2023/11/21 04:49:22;;;;;;;54.70;17.23;;;10.60;99.90;;;;;;5049994;28;20250;-46
2023/11/21 04:51:47;;;;;;;49.08;16.20;;;10.60;99.90;;;;;;5049757;28;20183;-46
2023/11/21 04:54:13;;;;;;;59.60;17.85;;;10.50;99.90;;;;;;5049960;28;20214;-49
2023/11/21 04:56:39;;;;;;;55.03;16.88;;;10.50;99.90;;;;;;5053291;28;20598;-43
2023/11/21 04:59:05;;;;;;;58.67;18.00;;;10.60;99.90;;;;;;5067226;28;20188;-45
2023/11/21 05:01:31;;;;;;;53.15;17.42;;;10.60;99.90;;;;;;5052104;28;20222;-48
2023/11/21 05:03:57;;;;;;;58.10;17.98;;;10.60;99.90;;;;;;5054292;28;20190;-44
2023/11/21 05:06:23;;;;;;;56.88;18.35;;;10.60;99.90;;;;;;5052586;28;20666;-43
2023/11/21 05:08:49;;;;;;;54.58;17.17;;;10.60;99.90;;;;;;5052784;28;20193;-47
2023/11/21 05:11:32;;;;;;;57.90;18.63;;;10.60;99.90;;;;;;5055373;28;20187;-50
2023/11/21 05:13:59;;;;;;;57.17;18.30;;;10.60;99.90;;;;;;5052001;28;20224;-48
2023/11/21 05:16:27;;;;;;;52.00;17.90;;;10.60;99.90;;;;;;5054084;28;20295;-44
2023/11/21 05:18:56;;;;;;;42.03;16.58;;;10.60;99.90;;;;;;5052365;28;20176;-42
2023/11/21 05:21:22;;;;;;;40.03;16.30;;;10.60;99.90;;;;;;5052332;28;20194;-45
2023/11/21 05:23:48;;;;;;;40.20;15.93;;;10.60;99.90;;;;;;5052706;28;20195;-45
2023/11/21 05:26:14;;;;;;;34.83;15.68;;;10.60;99.90;;;;;;5051948;28;20198;-44
2023/11/21 05:28:40;;;;;;;36.30;16.02;;;10.60;99.90;;;;;;5055299;28;20682;-47
2023/11/21 05:31:06;;;;;;;36.85;16.45;;;10.60;99.90;;;;;;5052916;28;20265;-41
2023/11/21 05:33:33;;;;;;;28.73;15.43;;;10.60;99.90;;;;;;5052489;28;20218;-49
2023/11/21 05:35:59;;;;;;;39.55;16.50;;;10.60;99.90;;;;;;5052177;28;20192;-43
2023/11/21 05:38:24;;;;;;;31.42;15.65;;;10.60;99.90;;;;;;5052038;28;20175;-43
2023/11/21 05:40:50;;;;;;;35.42;15.98;;;10.60;99.90;;;;;;5049341;28;20702;-48
2023/11/21 05:43:16;;;;;;;38.80;17.35;;;10.60;99.90;;;;;;5051289;28;20203;-45
2023/11/21 05:45:42;;;;;;;34.72;16.95;;;10.60;99.90;;;;;;5051927;28;20217;-46
2023/11/21 05:48:08;;;;;;;34.28;17.38;;;10.70;99.90;;;;;;5053369;28;20677;-41
2023/11/21 05:50:34;;;;;;;35.65;17.02;;;10.70;99.90;;;;;;5052044;28;20238;-45
2023/11/21 05:53:00;;;;;;;40.05;17.05;;;10.70;99.90;;;;;;5050807;28;20341;-46
2023/11/21 05:55:26;;;;;;;39.15;18.83;;;10.70;99.90;;;;;;5049533;28;21255;-47
2023/11/21 05:57:52;;;;;;;37.97;18.15;;;10.70;99.90;;;;;;5052924;28;20224;-47
2023/11/21 06:00:21;;;;;;;37.13;18.27;;;10.70;99.90;;;;;;5049757;28;20236;-42
2023/11/21 06:02:52;;;;;;;38.33;18.35;;;10.70;99.90;;;;;;5050489;28;20183;-43
2023/11/21 06:05:20;;;;;;;36.28;17.75;;;10.70;99.90;;;;;;5048251;28;20669;-47
2023/11/21 06:07:46;;;;;;;41.10;18.58;;;10.70;99.90;;;;;;5051084;28;20190;-46
2023/11/21 06:10:14;;;;;;;43.40;19.63;;;10.70;99.90;;;;;;5050954;28;21031;-45
2023/11/21 06:12:42;;;;;;;43.85;20.92;;;10.80;99.90;;;;;;5053588;28;20798;-43
2023/11/21 06:15:12;;;;;;;45.58;22.45;;;10.80;99.90;;;;;;5052458;28;20187;-47
2023/11/21 06:17:38;;;;;;;49.83;22.27;;;10.70;99.90;;;;;;5051936;28;20190;-48
2023/11/21 06:20:09;;;;;;;41.80;20.15;;;10.60;99.90;;;;;;5052110;28;20233;-43
2023/11/21 06:22:40;;;;;;;41.78;21.05;;;10.60;99.90;;;;;;5047877;28;20286;-43
2023/11/21 06:25:08;;;;;;;46.95;21.13;;;10.50;99.90;;;;;;5047944;28;20187;-42
2023/11/21 06:27:37;;;;;;;42.83;21.27;;;10.50;99.90;;;;;;5051742;28;20202;-47
2023/11/21 06:30:03;;;;;;;44.72;20.55;;;10.50;99.90;;;;;;5051875;28;20211;-45
2023/11/21 06:32:29;;;;;;;50.95;21.33;;;10.50;99.90;;;;;;5048144;28;20241;-43
2023/11/21 06:34:59;;;;;;;38.15;19.77;;;10.40;99.90;;;;;;5049004;28;20188;-45
2023/11/21 06:37:28;;;;;;;42.65;19.48;;;10.40;99.90;;;;;;5053940;28;20700;-43
2023/11/21 06:39:56;;;;;;;39.00;18.75;;;10.40;99.90;;;;;;5049585;28;20187;-48
2023/11/21 06:42:22;;;;;;;28.50;16.05;;;10.40;99.90;;;;;;5050157;28;20260;-51
2023/11/21 06:44:48;;;;;;;33.38;16.27;;;10.40;99.90;;;;;;5050315;28;20195;-45
2023/11/21 06:47:15;;;;;;;34.67;16.42;;;10.40;99.90;;;;;;5052263;28;20191;-45
2023/11/21 06:49:42;;;;;;;28.13;16.75;;;10.40;99.90;;;;;;5050555;28;20226;-46
2023/11/21 06:52:09;;;;;;;32.20;17.77;;;10.40;99.90;;;;;;5052180;28;20548;-46
2023/11/21 06:54:36;;;;;;;33.00;18.23;;;10.40;99.90;;;;;;5051801;28;20278;-45
2023/11/21 06:57:02;;;;;;;33.38;18.38;;;10.40;99.90;;;;;;5058531;28;20903;-45
2023/11/21 06:59:29;;;;;;;34.38;18.60;;;10.40;99.90;;;;;;5049668;28;20320;-47
2023/11/21 07:01:55;;;;;;;32.08;18.60;;;10.30;99.90;;;;;;5051928;28;20187;-44
2023/11/21 07:04:21;;;;;;;34.58;19.85;;;10.30;99.90;;;;;;5049005;28;20274;-50
2023/11/21 07:06:46;;;;;;;36.55;20.92;;;10.30;99.90;;;;;;5044460;28;20190;-43
2023/11/21 07:09:13;;;;;;;37.33;21.83;;;10.30;99.90;;;;;;5049314;28;20325;-41
2023/11/21 07:11:38;;;;;;;40.53;21.00;;;10.30;99.90;;;;;;5049437;28;20213;-43
2023/11/21 07:14:08;;;;;;;39.80;23.40;;;10.30;99.90;;;;;;5046843;28;20596;-45
2023/11/21 07:16:37;;;;;;;41.17;22.02;;;10.30;99.90;;;;;;5044661;28;20240;-47
2023/11/21 07:19:07;;;;;;;46.55;24.40;;;10.30;99.90;;;;;;5051727;28;20183;-50
2023/11/21 07:21:36;;;;;;;48.10;25.05;;;10.30;99.90;;;;;;5047531;28;20261;-49
2023/11/21 07:24:03;;;;;;;48.08;26.52;;;10.40;99.90;;;;;;5050654;28;20564;-42
2023/11/21 07:26:30;;;;;;;45.20;24.08;;;10.40;99.90;;;;;;5045018;28;20227;-44
2023/11/21 07:28:56;;;;;;;46.00;25.38;;;10.30;99.90;;;;;;5050118;28;20249;-45
2023/11/21 07:31:23;;;;;;;46.60;23.65;;;10.30;99.90;;;;;;5048483;28;20195;-44
2023/11/21 07:33:53;;;;;;;48.38;24.70;;;10.30;99.90;;;;;;5046691;28;20654;-47
2023/11/21 07:36:22;;;;;;;45.08;24.13;;;10.30;99.90;;;;;;5052429;28;20187;-41
2023/11/21 07:38:48;;;;;;;41.35;24.45;;;10.30;99.90;;;;;;5046885;28;20659;-45
2023/11/21 07:41:15;;;;;;;42.13;24.80;;;10.20;99.90;;;;;;5046817;28;20183;-43
2023/11/21 07:43:42;;;;;;;41.10;24.50;;;10.20;99.90;;;;;;5059002;28;20218;-47
2023/11/21 07:46:08;;;;;;;43.22;25.45;;;10.20;99.90;;;;;;5048237;28;20210;-46
2023/11/21 07:48:35;;;;;;;39.28;23.85;;;10.20;99.90;;;;;;5056710;28;20255;-46
2023/11/21 07:51:05;;;;;;;39.33;24.05;;;10.20;99.90;;;;;;5063417;28;20226;-44
2023/11/21 07:53:31;;;;;;;41.00;24.23;;;10.20;99.90;;;;;;5044319;28;20223;-51
2023/11/21 07:55:58;;;;;;;41.20;26.25;;;10.20;99.90;;;;;;5047711;28;20912;-51
2023/11/21 07:58:24;;;;;;;40.22;24.13;;;10.20;99.90;;;;;;5052772;28;20215;-43
2023/11/21 08:00:50;;;;;;;41.33;24.65;;;10.20;99.90;;;;;;5049122;28;20691;-45
2023/11/21 08:03:16;;;;;;;39.35;24.83;;;10.20;99.90;;;;;;5047199;28;20602;-46
2023/11/21 08:05:43;;;;;;;38.63;24.83;;;10.20;99.90;;;;;;5047414;28;20199;-49
2023/11/21 08:08:09;;;;;;;38.67;24.90;;;10.30;99.90;;;;;;5046724;28;20245;-47
2023/11/21 08:10:38;;;;;;;40.40;25.00;;;10.30;99.90;;;;;;5047791;28;20296;-44
2023/11/21 08:13:08;;;;;;;42.75;25.02;;;10.30;99.90;;;;;;5047356;28;20224;-50
2023/11/21 08:15:36;;;;;;;41.22;26.13;;;10.30;99.90;;;;;;5046834;28;20705;-43
2023/11/21 08:18:03;;;;;;;43.63;26.30;;;10.30;99.90;;;;;;5048430;28;20669;-47
2023/11/21 08:20:29;;;;;;;42.60;26.67;;;10.30;99.90;;;;;;5045642;28;20191;-45
2023/11/21 08:22:56;;;;;;;44.53;26.20;;;10.30;99.90;;;;;;5046837;28;20660;-47
2023/11/21 08:25:22;;;;;;;43.90;27.00;;;10.40;99.90;;;;;;5049344;28;20290;-44
2023/11/21 08:27:48;;;;;;;46.42;25.50;;;10.40;99.90;;;;;;5050530;28;20702;-45
2023/11/21 08:30:16;;;;;;;43.33;26.23;;;10.40;99.90;;;;;;5052087;28;20198;-50
2023/11/21 08:32:42;;;;;;;42.28;25.38;;;10.40;99.90;;;;;;5053258;28;20211;-45
2023/11/21 08:35:09;;;;;;;41.25;25.15;;;10.50;99.90;;;;;;5047690;28;20631;-49
2023/11/21 08:37:38;;;;;;;37.30;23.48;;;10.40;99.90;;;;;;5053897;28;20194;-45
2023/11/21 08:40:09;;;;;;;30.38;21.25;;;10.40;99.90;;;;;;5052692;28;20720;-45
2023/11/21 08:42:36;;;;;;;27.67;19.65;;;10.40;99.90;;;;;;5054371;28;20547;-45
2023/11/21 08:45:01;;;;;;;25.90;18.63;;;10.40;99.90;;;;;;5052152;28;20610;-50
2023/11/21 08:47:27;;;;;;;24.42;18.63;;;10.30;99.90;;;;;;5049266;28;20191;-50
2023/11/21 08:49:53;;;;;;;28.50;18.10;;;10.30;99.90;;;;;;5052362;28;20262;-44
2023/11/21 08:52:23;;;;;;;28.90;18.33;;;10.30;99.90;;;;;;5049363;28;20284;-44
2023/11/21 08:54:55;;;;;;;23.95;17.58;;;10.30;99.90;;;;;;5052339;28;20560;-46
2023/11/21 08:57:25;;;;;;;24.17;17.63;;;10.30;99.90;;;;;;5048472;28;20282;-43
2023/11/21 08:59:55;;;;;;;22.63;17.20;;;10.30;99.90;;;;;;5053069;28;20317;-44
2023/11/21 09:02:26;;;;;;;25.23;17.77;;;10.30;99.90;;;;;;5051105;28;20199;-45
2023/11/21 09:04:52;;;;;;;25.48;17.88;;;10.30;99.90;;;;;;5050052;28;20209;-47
2023/11/21 09:07:20;;;;;;;20.65;15.60;;;10.30;99.90;;;;;;5052403;28;20266;-48
2023/11/21 09:09:47;;;;;;;21.40;16.02;;;10.20;99.90;;;;;;5049135;28;20175;-44
2023/11/21 09:12:14;;;;;;;22.90;15.77;;;10.30;99.90;;;;;;5067229;28;20295;-47
2023/11/21 09:14:40;;;;;;;23.98;17.25;;;10.20;99.90;;;;;;5052244;28;20992;-49
2023/11/21 09:17:10;;;;;;;23.52;15.90;;;10.20;99.90;;;;;;5049924;28;20206;-43
2023/11/21 09:19:40;;;;;;;22.95;15.73;;;10.20;99.90;;;;;;5050837;28;20198;-47
2023/11/21 09:22:06;;;;;;;22.45;15.95;;;10.20;99.90;;;;;;5052336;28;20190;-49
2023/11/21 09:24:32;;;;;;;22.27;16.38;;;10.20;99.90;;;;;;5051154;28;20195;-41
2023/11/21 09:26:59;;;;;;;22.08;16.27;;;10.20;99.90;;;;;;5051759;28;20199;-43
2023/11/21 09:29:28;;;;;;;21.58;15.98;;;10.20;99.90;;;;;;5052739;28;20262;-45
2023/11/21 09:31:57;;;;;;;21.35;15.65;;;10.20;99.90;;;;;;5049372;28;20191;-48
2023/11/21 09:34:22;;;;;;;20.02;15.35;;;10.20;99.90;;;;;;5065175;28;20289;-45
2023/11/21 09:36:49;;;;;;;23.00;16.35;;;10.20;99.90;;;;;;5048281;28;20286;-45
2023/11/21 09:39:15;;;;;;;22.35;16.02;;;10.20;99.90;;;;;;5049444;28;20298;-46
2023/11/21 09:41:46;;;;;;;22.48;15.52;;;10.20;99.90;;;;;;5054618;28;20273;-48
2023/11/21 09:44:17;;;;;;;20.95;15.05;;;10.20;99.90;;;;;;5050850;28;20204;-47
2023/11/21 09:46:43;;;;;;;19.35;14.43;;;10.20;99.90;;;;;;5053063;28;20232;-42
2023/11/21 09:49:13;;;;;;;18.45;13.40;;;10.10;99.90;;;;;;5049464;28;20199;-50
2023/11/21 09:51:43;;;;;;;18.90;12.95;;;10.10;99.90;;;;;;5052455;28;20972;-47
2023/11/21 09:54:15;;;;;;;18.73;13.02;;;10.10;99.90;;;;;;5048225;28;20306;-46
2023/11/21 09:56:42;;;;;;;17.75;11.90;;;10.10;99.90;;;;;;5060499;28;20717;-46
2023/11/21 09:59:15;;;;;;;18.23;12.15;;;10.10;99.90;;;;;;5053595;28;20566;-42
2023/11/21 10:01:42;;;;;;;15.73;11.65;;;10.20;99.90;;;;;;5052527;28;21016;-46
2023/11/21 10:04:12;;;;;;;15.77;11.88;;;10.20;99.90;;;;;;5051984;28;20328;-43
2023/11/21 10:06:41;;;;;;;14.98;11.52;;;10.30;99.90;;;;;;5053032;28;20187;-47
2023/11/21 10:09:11;;;;;;;15.10;11.18;;;10.30;99.90;;;;;;5055798;28;20206;-44
2023/11/21 10:11:43;;;;;;;13.55;10.48;;;10.20;99.90;;;;;;5067291;28;20201;-52
2023/11/21 10:14:13;;;;;;;16.92;10.98;;;10.20;99.90;;;;;;5052405;28;20271;-43
2023/11/21 10:16:41;;;;;;;14.60;10.88;;;10.20;99.90;;;;;;5046543;28;20646;-49
2023/11/21 10:19:13;;;;;;;14.98;10.82;;;10.20;99.90;;;;;;5046797;28;20231;-47
2023/11/21 10:21:39;;;;;;;15.90;11.15;;;10.20;99.90;;;;;;5052198;28;20628;-43
2023/11/21 10:24:06;;;;;;;13.60;10.60;;;10.10;99.90;;;;;;5047043;28;20195;-49
2023/11/21 10:26:33;;;;;;;16.27;9.77;;;10.10;99.90;;;;;;5048817;28;21865;-45
2023/11/21 10:29:01;;;;;;;15.95;10.05;;;10.10;99.90;;;;;;5049001;28;20225;-48
2023/11/21 10:31:27;;;;;;;15.88;10.45;;;10.00;99.90;;;;;;5050845;28;20305;-44
2023/11/21 10:33:53;;;;;;;14.55;10.75;;;10.00;99.90;;;;;;5051860;28;20694;-44
2023/11/21 10:36:27;;;;;;;14.18;10.73;;;10.00;99.90;;;;;;5049454;28;20202;-45
2023/11/21 10:38:53;;;;;;;19.08;11.32;;;10.00;99.90;;;;;;5049791;28;20192;-51
2023/11/21 10:41:20;;;;;;;15.38;10.70;;;10.10;99.90;;;;;;5048542;28;20240;-49
2023/11/21 10:43:46;;;;;;;14.07;10.05;;;10.10;99.90;;;;;;5048243;28;20183;-45
2023/11/21 10:46:14;;;;;;;15.20;10.60;;;10.10;99.90;;;;;;5052320;28;20666;-49
2023/11/21 10:48:42;;;;;;;12.85;9.35;;;10.20;99.90;;;;;;5049240;28;20556;-45
2023/11/21 10:51:09;;;;;;;14.50;10.13;;;10.20;99.90;;;;;;5051793;28;20219;-44
2023/11/21 10:53:42;;;;;;;14.68;10.45;;;10.20;99.90;;;;;;5048163;28;20213;-54
2023/11/21 10:56:17;;;;;;;17.40;10.43;;;10.20;99.90;;;;;;5052972;28;20218;-44
2023/11/21 10:58:44;;;;;;;15.00;10.75;;;10.20;99.90;;;;;;5047544;28;20241;-44
2023/11/21 11:01:14;;;;;;;15.52;11.23;;;10.20;99.90;;;;;;5048712;28;20632;-47
2023/11/21 11:03:41;;;;;;;16.13;10.68;;;10.20;99.90;;;;;;5050730;28;20203;-49
2023/11/21 11:06:11;;;;;;;17.38;11.45;;;10.30;99.90;;;;;;5046122;28;20229;-45
2023/11/21 11:08:37;;;;;;;15.05;10.77;;;10.30;99.90;;;;;;5049550;28;20269;-43
2023/11/21 11:11:05;;;;;;;16.77;10.43;;;10.30;99.90;;;;;;5046638;28;20209;-41
2023/11/21 11:13:31;;;;;;;14.32;10.25;;;10.30;99.90;;;;;;5048631;28;20729;-44
2023/11/21 11:16:01;;;;;;;16.13;10.85;;;10.30;99.90;;;;;;5051272;28;20179;-45
2023/11/21 11:18:30;;;;;;;17.20;11.10;;;10.30;99.90;;;;;;5045659;28;20273;-49
2023/11/21 11:21:39;;;;;;;13.20;10.20;;;10.30;99.90;;;;;;5049702;28;20191;-44
2023/11/21 11:24:21;;;;;;;11.88;8.82;;;10.30;99.90;;;;;;5050198;28;20191;-45
2023/11/21 11:27:25;;;;;;;13.38;9.80;;;10.40;99.90;;;;;;5064374;28;20206;-47
2023/11/21 11:30:38;;;;;;;13.23;9.68;;;10.40;99.90;;;;;;5042507;28;20208;-44
2023/11/21 11:33:25;;;;;;;12.35;9.18;;;10.40;99.90;;;;;;5045541;28;20225;-48
2023/11/21 11:36:26;;;;;;;21.10;10.25;;;10.40;99.90;;;;;;5048540;28;20219;-46
2023/11/21 11:38:52;;;;;;;14.98;9.75;;;10.40;99.90;;;;;;5051063;28;20256;-46
2023/11/21 11:41:34;;;;;;;16.95;11.23;;;10.40;99.90;;;;;;5047350;28;20598;-47
2023/11/21 11:44:01;;;;;;;15.20;10.05;;;10.40;99.90;;;;;;5048828;28;20183;-47
2023/11/21 11:46:47;;;;;;;13.63;10.43;;;10.30;99.90;;;;;;5049119;28;20274;-47
2023/11/21 11:49:28;;;;;;;12.93;9.35;;;10.20;99.90;;;;;;5046599;28;20187;-50
2023/11/21 11:52:32;;;;;;;14.30;9.27;;;10.10;99.90;;;;;;5052131;28;20210;-49
2023/11/21 11:55:00;;;;;;;16.60;9.52;;;10.20;99.90;;;;;;5060180;28;20561;-50
2023/11/21 11:57:26;;;;;;;15.23;9.75;;;10.20;99.90;;;;;;5046132;28;20636;-44
2023/11/21 12:00:24;;;;;;;13.65;9.52;;;10.30;99.90;;;;;;5047446;28;20270;-44
2023/11/21 12:03:11;;;;;;;12.88;8.77;;;10.30;99.90;;;;;;5043956;28;20207;-47
2023/11/21 12:05:41;;;;;;;12.38;8.48;;;10.30;99.90;;;;;;5048557;28;21189;-43
2023/11/21 12:08:07;;;;;;;12.38;8.68;;;10.40;99.90;;;;;;5047889;28;20191;-50
2023/11/21 12:10:35;;;;;;;10.70;8.38;;;10.40;99.90;;;;;;5048365;28;20186;-48
2023/11/21 12:13:09;;;;;;;12.77;8.50;;;10.40;99.90;;;;;;5046369;28;20225;-46
2023/11/21 12:15:36;;;;;;;12.57;8.50;;;10.30;99.90;;;;;;5048728;28;20187;-44
2023/11/21 12:18:03;;;;;;;12.20;8.57;;;10.40;99.90;;;;;;5066304;28;20264;-46
2023/11/21 12:20:30;;;;;;;13.20;8.70;;;10.30;99.90;;;;;;5049700;28;20187;-46
2023/11/21 12:23:00;;;;;;;11.75;8.73;;;10.40;99.90;;;;;;5051857;28;20556;-46
2023/11/21 12:25:34;;;;;;;12.95;8.77;;;10.40;99.90;;;;;;5063690;28;20219;-48
2023/11/21 12:28:02;;;;;;;13.50;9.10;;;10.50;99.90;;;;;;5048524;28;20586;-43
2023/11/21 12:30:35;;;;;;;13.20;9.00;;;10.60;99.90;;;;;;5047975;28;20205;-44
2023/11/21 12:33:02;;;;;;;13.60;9.02;;;10.50;99.90;;;;;;5047064;28;20211;-47